createdAt,value
2019-03-31T00:00:32.162Z,276.63
2019-03-31T00:04:43.352Z,280.43
2019-03-31T00:08:53.332Z,278.47
2019-03-31T00:13:03.289Z,288.23
2019-03-31T00:17:14.291Z,277.83
2019-03-31T00:21:25.744Z,277.60
2019-03-31T00:25:36.179Z,275.87
2019-03-31T00:29:47.196Z,283.80
2019-03-31T00:33:57.036Z,274.00
2019-03-31T00:38:06.913Z,267.53
2019-03-31T00:42:16.834Z,270.50
2019-03-31T00:46:27.540Z,271.17
2019-03-31T00:50:38.043Z,279.93
2019-03-31T00:54:48.512Z,269.03
2019-03-31T00:58:58.595Z,269.57
2019-03-31T01:03:09.522Z,270.70
2019-03-31T01:07:19.839Z,274.83
2019-03-31T01:11:30.504Z,260.23
2019-03-31T01:15:40.554Z,267.23
2019-03-31T01:19:52.240Z,266.40
2019-03-31T01:24:02.346Z,272.30
2019-03-31T01:28:12.215Z,278.20
2019-03-31T01:32:22.427Z,261.77
2019-03-31T01:36:32.341Z,257.53
2019-03-31T01:40:42.768Z,260.40
2019-03-31T01:44:52.695Z,258.60
2019-03-31T01:49:02.636Z,260.90
2019-03-31T01:53:12.518Z,266.00
2019-03-31T01:57:22.607Z,269.60
2019-03-31T02:01:33.403Z,268.17
2019-03-31T02:05:45.137Z,266.97
2019-03-31T02:09:56.312Z,290.63
2019-03-31T02:14:06.067Z,265.97
2019-03-31T02:18:15.975Z,270.97
2019-03-31T02:22:25.817Z,268.97
2019-03-31T02:26:35.604Z,275.50
2019-03-31T02:30:46.752Z,268.80
2019-03-31T02:34:58.149Z,261.47
2019-03-31T02:39:09.755Z,270.50
2019-03-31T02:43:21.375Z,268.67
2019-03-31T02:47:31.178Z,265.17
2019-03-31T02:51:41.008Z,279.47
2019-03-31T02:55:51.279Z,272.90
2019-03-31T03:00:02.286Z,266.33
2019-03-31T03:04:13.815Z,267.07
2019-03-31T03:08:23.549Z,255.07
2019-03-31T03:12:35.074Z,262.37
2019-03-31T03:16:44.979Z,262.47
2019-03-31T03:20:54.695Z,268.87
2019-03-31T03:25:06.767Z,273.37
2019-03-31T03:29:18.324Z,266.90
2019-03-31T03:33:28.179Z,268.53
2019-03-31T03:37:38.961Z,258.83
2019-03-31T03:41:48.678Z,269.70
2019-03-31T03:45:58.538Z,258.03
2019-03-31T03:50:09.431Z,267.53
2019-03-31T03:54:19.291Z,264.27
2019-03-31T03:58:29.291Z,263.80
2019-03-31T04:02:39.186Z,264.20
2019-03-31T04:06:48.911Z,265.77
2019-03-31T04:11:10.281Z,265.97
2019-03-31T04:15:20.683Z,269.07
2019-03-31T04:19:30.395Z,267.37
2019-03-31T04:23:40.161Z,269.87
2019-03-31T04:27:50.175Z,258.37
2019-03-31T04:32:00.017Z,266.57
2019-03-31T04:36:09.733Z,256.37
2019-03-31T04:40:19.852Z,266.53
2019-03-31T04:44:29.581Z,263.60
2019-03-31T04:48:39.456Z,266.53
2019-03-31T04:52:49.194Z,268.97
2019-03-31T04:56:58.918Z,267.67
2019-03-31T05:01:08.889Z,274.50
2019-03-31T05:05:18.656Z,264.43
2019-03-31T05:09:30.449Z,265.73
2019-03-31T05:13:40.199Z,268.53
2019-03-31T05:17:50.036Z,261.50
2019-03-31T05:21:59.822Z,288.77
2019-03-31T05:26:09.822Z,268.73
2019-03-31T05:30:21.270Z,265.73
2019-03-31T05:34:31.264Z,278.43
2019-03-31T05:38:41.111Z,275.60
2019-03-31T05:42:51.039Z,277.87
2019-03-31T05:47:02.021Z,272.23
2019-03-31T05:51:12.405Z,293.37
2019-03-31T05:55:22.138Z,283.83
2019-03-31T05:59:31.918Z,286.60
2019-03-31T06:03:42.315Z,285.60
2019-03-31T06:07:52.137Z,283.40
2019-03-31T06:12:03.741Z,281.60
2019-03-31T06:16:13.745Z,288.30
2019-03-31T06:20:25.003Z,279.90
2019-03-31T06:24:36.999Z,300.23
2019-03-31T06:28:46.960Z,285.03
2019-03-31T06:32:56.847Z,286.20
2019-03-31T06:37:06.538Z,281.13
2019-03-31T06:41:16.843Z,280.40
2019-03-31T06:45:26.612Z,287.20
2019-03-31T06:49:37.002Z,288.23
2019-03-31T06:53:46.758Z,291.52
2019-03-31T06:57:56.637Z,294.70
2019-03-31T07:02:06.741Z,307.93
2019-03-31T07:06:16.486Z,296.97
2019-03-31T07:10:26.243Z,288.40
2019-03-31T07:14:36.141Z,302.50
2019-03-31T07:18:45.910Z,300.52
2019-03-31T07:22:55.616Z,294.60
2019-03-31T07:27:05.500Z,311.47
2019-03-31T07:31:15.328Z,294.87
2019-03-31T07:35:25.063Z,306.43
2019-03-31T07:39:35.244Z,294.30
2019-03-31T07:43:45.728Z,294.47
2019-03-31T07:47:55.546Z,298.80
2019-03-31T07:52:05.683Z,300.57
2019-03-31T07:56:16.254Z,304.13
2019-03-31T08:00:29.293Z,301.73
2019-03-31T08:04:39.039Z,299.70
2019-03-31T08:08:49.078Z,297.70
2019-03-31T08:12:58.867Z,320.35
2019-03-31T08:17:08.661Z,296.90
2019-03-31T08:21:18.592Z,304.63
2019-03-31T08:25:28.346Z,280.13
2019-03-31T08:29:38.099Z,297.20
2019-03-31T08:33:49.253Z,301.43
2019-03-31T08:37:58.996Z,297.57
2019-03-31T08:42:08.942Z,292.77
2019-03-31T08:46:19.002Z,292.83
2019-03-31T08:50:28.903Z,301.40
2019-03-31T08:54:38.835Z,296.77
2019-03-31T08:58:49.731Z,315.47
2019-03-31T09:02:59.639Z,298.13
2019-03-31T09:07:09.508Z,288.67
2019-03-31T09:11:20.915Z,312.37
2019-03-31T09:15:30.736Z,287.87
2019-03-31T09:19:40.876Z,300.70
2019-03-31T09:23:50.757Z,313.00
2019-03-31T09:28:00.570Z,273.47
2019-03-31T09:32:10.316Z,310.87
2019-03-31T09:36:19.986Z,295.60
2019-03-31T09:40:29.720Z,285.73
2019-03-31T09:44:39.463Z,306.23
2019-03-31T09:48:49.298Z,300.63
2019-03-31T09:52:59.667Z,318.07
2019-03-31T09:57:10.955Z,305.80
2019-03-31T10:01:21.769Z,296.63
2019-03-31T10:05:32.935Z,286.13
2019-03-31T10:09:42.778Z,296.93
2019-03-31T10:13:53.783Z,296.60
2019-03-31T10:18:04.196Z,292.80
2019-03-31T10:22:13.921Z,301.17
2019-03-31T10:26:31.662Z,303.77
2019-03-31T10:30:36.623Z,309.20
2019-03-31T10:34:46.341Z,299.37
2019-03-31T10:38:56.198Z,295.33
2019-03-31T10:43:06.201Z,296.63
2019-03-31T10:47:16.102Z,293.80
2019-03-31T10:51:27.111Z,297.25
2019-03-31T10:55:37.414Z,307.17
2019-03-31T10:59:47.255Z,301.03
2019-03-31T11:03:56.958Z,300.53
2019-03-31T11:08:06.876Z,290.00
2019-03-31T11:12:16.625Z,293.47
2019-03-31T11:16:27.520Z,288.87
2019-03-31T11:20:37.517Z,303.10
2019-03-31T11:24:47.734Z,307.43
2019-03-31T11:28:57.476Z,300.67
2019-03-31T11:33:07.744Z,291.17
2019-03-31T11:37:17.716Z,295.27
2019-03-31T11:41:27.399Z,290.13
2019-03-31T11:45:38.477Z,294.73
2019-03-31T11:49:48.875Z,303.60
2019-03-31T11:53:58.629Z,280.40
2019-03-31T11:58:08.409Z,294.07
2019-03-31T12:02:27.130Z,297.90
2019-03-31T12:06:29.867Z,300.07
2019-03-31T12:10:39.610Z,292.33
2019-03-31T12:14:59.898Z,285.63
2019-03-31T12:19:00.822Z,277.77
2019-03-31T12:23:12.891Z,294.03
2019-03-31T12:27:22.798Z,295.97
2019-03-31T12:31:32.631Z,294.20
2019-03-31T12:35:44.305Z,288.68
2019-03-31T12:39:54.197Z,286.37
2019-03-31T12:44:03.946Z,284.97
2019-03-31T12:48:15.726Z,277.83
2019-03-31T12:52:25.533Z,286.43
2019-03-31T12:56:37.364Z,275.90
2019-03-31T13:00:51.924Z,283.10
2019-03-31T13:05:03.587Z,294.03
2019-03-31T13:09:16.954Z,282.40
2019-03-31T13:13:26.742Z,275.73
2019-03-31T13:17:36.770Z,268.37
2019-03-31T13:21:46.545Z,275.53
2019-03-31T13:25:56.286Z,266.53
2019-03-31T13:30:08.252Z,267.93
2019-03-31T13:34:17.994Z,280.00
2019-03-31T13:38:27.946Z,274.97
2019-03-31T13:42:37.661Z,264.73
2019-03-31T13:46:47.493Z,269.47
2019-03-31T13:50:57.249Z,269.30
2019-03-31T13:55:07.606Z,267.10
2019-03-31T13:59:17.325Z,262.23
2019-03-31T14:03:27.117Z,262.10
2019-03-31T14:07:38.470Z,261.93
2019-03-31T14:11:50.207Z,262.43
2019-03-31T14:16:00.219Z,269.30
2019-03-31T14:20:10.679Z,263.10
2019-03-31T14:24:20.435Z,263.13
2019-03-31T14:28:31.562Z,273.37
2019-03-31T14:32:41.517Z,280.80
2019-03-31T14:36:51.245Z,270.17
2019-03-31T14:41:02.449Z,263.50
2019-03-31T14:45:15.226Z,266.37
2019-03-31T14:49:25.913Z,260.13
2019-03-31T14:53:36.186Z,281.17
2019-03-31T14:57:45.928Z,272.97
2019-03-31T15:01:55.618Z,266.87
2019-03-31T15:06:08.486Z,260.03
2019-03-31T15:10:18.430Z,262.37
2019-03-31T15:14:28.735Z,262.97
2019-03-31T15:18:38.647Z,265.27
2019-03-31T15:22:51.301Z,259.57
2019-03-31T15:26:59.925Z,265.85
2019-03-31T15:31:09.893Z,264.60
2019-03-31T15:35:19.791Z,261.70
2019-03-31T15:39:29.779Z,264.17
2019-03-31T15:43:40.691Z,260.10
2019-03-31T15:47:50.507Z,264.10
2019-03-31T15:52:01.330Z,275.73
2019-03-31T15:56:11.083Z,259.87
2019-03-31T16:00:21.718Z,266.20
2019-03-31T16:04:34.226Z,256.53
2019-03-31T16:08:46.519Z,251.60
2019-03-31T16:12:56.252Z,262.10
2019-03-31T16:17:07.775Z,253.53
2019-03-31T16:21:17.627Z,248.90
2019-03-31T16:25:31.547Z,256.43
2019-03-31T16:29:43.836Z,254.40
2019-03-31T16:33:53.590Z,249.27
2019-03-31T16:38:05.335Z,247.53
2019-03-31T16:42:19.194Z,252.13
2019-03-31T16:46:29.352Z,242.17
2019-03-31T16:50:41.267Z,252.67
2019-03-31T16:54:52.617Z,252.63
2019-03-31T16:59:01.377Z,245.83
2019-03-31T17:03:10.220Z,249.90
2019-03-31T17:07:20.640Z,256.10
2019-03-31T17:11:30.401Z,260.77
2019-03-31T17:15:40.776Z,254.23
2019-03-31T17:19:50.743Z,250.00
2019-03-31T17:24:00.760Z,253.53
2019-03-31T17:28:11.074Z,250.37
2019-03-31T17:32:21.321Z,249.50
2019-03-31T17:36:30.786Z,255.53
2019-03-31T17:40:39.654Z,248.47
2019-03-31T17:44:50.042Z,253.00
2019-03-31T17:48:59.445Z,260.23
2019-03-31T17:53:08.145Z,255.60
2019-03-31T17:57:18.830Z,256.77
2019-03-31T18:01:29.192Z,254.87
2019-03-31T18:05:38.470Z,246.33
2019-03-31T18:09:47.204Z,245.37
2019-03-31T18:13:55.929Z,249.80
2019-03-31T18:18:04.789Z,267.03
2019-03-31T18:22:16.720Z,264.90
2019-03-31T18:26:25.413Z,250.20
2019-03-31T18:30:34.137Z,239.90
2019-03-31T18:34:42.898Z,247.07
2019-03-31T18:38:51.594Z,253.70
2019-03-31T18:43:00.363Z,246.13
2019-03-31T18:47:11.614Z,249.40
2019-03-31T18:51:20.340Z,252.50
2019-03-31T18:55:42.540Z,247.43
2019-03-31T18:59:55.572Z,255.70
2019-03-31T19:04:17.762Z,241.10
2019-03-31T19:08:44.325Z,250.83
2019-03-31T19:13:12.812Z,248.10
2019-03-31T19:17:30.038Z,262.27
2019-03-31T19:21:59.037Z,249.83
2019-03-31T19:26:18.002Z,250.77
2019-03-31T19:30:45.100Z,248.73
2019-03-31T19:34:58.637Z,258.00
2019-03-31T19:39:13.446Z,255.60
2019-03-31T19:43:23.769Z,265.87
2019-03-31T19:47:36.180Z,247.47
2019-03-31T19:52:06.304Z,251.33
2019-03-31T19:56:18.098Z,245.87
2019-03-31T20:00:44.153Z,243.30
2019-03-31T20:04:54.455Z,247.93
2019-03-31T20:09:10.884Z,241.33
2019-03-31T20:13:29.671Z,242.83
2019-03-31T20:17:56.731Z,243.27
2019-03-31T20:22:21.990Z,260.20
2019-03-31T20:26:35.121Z,245.87
2019-03-31T20:30:46.201Z,241.40
2019-03-31T20:35:02.522Z,240.03
2019-03-31T20:39:29.172Z,248.37
2019-03-31T20:43:42.532Z,254.43
2019-03-31T20:47:52.802Z,243.63
2019-03-31T20:52:02.098Z,247.20
2019-03-31T20:56:12.090Z,245.80
2019-03-31T21:00:20.884Z,244.73
2019-03-31T21:04:29.678Z,250.03
2019-03-31T21:08:38.978Z,234.43
2019-03-31T21:12:47.724Z,242.70
2019-03-31T21:16:56.416Z,239.43
2019-03-31T21:21:05.829Z,248.17
2019-03-31T21:25:14.727Z,238.67
2019-03-31T21:29:26.060Z,251.53
2019-03-31T21:33:34.847Z,240.97
2019-03-31T21:37:43.556Z,241.03
2019-03-31T21:41:52.323Z,240.60
2019-03-31T21:46:01.058Z,245.67
2019-03-31T21:50:11.088Z,245.07
2019-03-31T21:54:19.971Z,241.20
2019-03-31T21:58:30.343Z,243.37
2019-03-31T22:02:39.155Z,232.63
2019-03-31T22:06:47.888Z,244.43
2019-03-31T22:10:57.433Z,244.93
2019-03-31T22:15:06.619Z,237.10
2019-03-31T22:19:15.310Z,243.10
2019-03-31T22:23:24.040Z,236.10
2019-03-31T22:27:33.638Z,241.10
2019-03-31T22:31:43.827Z,235.80
2019-03-31T22:36:10.748Z,239.17
2019-03-31T22:40:19.467Z,255.60
2019-03-31T22:44:28.323Z,238.00
2019-03-31T22:48:39.823Z,236.80
2019-03-31T22:52:52.718Z,240.50
2019-03-31T22:57:01.886Z,239.53
2019-03-31T23:01:12.386Z,241.65
2019-03-31T23:05:22.662Z,238.27
2019-03-31T23:09:34.319Z,232.53
2019-03-31T23:13:41.830Z,224.00
2019-03-31T23:17:50.606Z,220.43
2019-03-31T23:21:59.333Z,239.77
2019-03-31T23:26:10.098Z,249.87
2019-03-31T23:30:18.800Z,240.73
2019-03-31T23:34:27.543Z,233.63
2019-03-31T23:38:36.675Z,234.97
2019-03-31T23:52:39.043Z,224.63
2019-03-31T23:56:47.780Z,229.67
